createdAt,value
2018-02-21T00:01:53.902Z,90.40
2018-02-21T00:04:21.415Z,90.20
2018-02-21T00:06:49.704Z,90.20
2018-02-21T00:09:17.214Z,90.10
2018-02-21T00:11:44.733Z,89.20
2018-02-21T00:14:12.908Z,89.40
2018-02-21T00:16:40.419Z,90.10
2018-02-21T00:19:07.933Z,90.00
2018-02-21T00:21:35.469Z,90.00
2018-02-21T00:24:02.988Z,90.00
2018-02-21T00:26:30.510Z,90.40
2018-02-21T00:28:58.018Z,90.60
2018-02-21T00:31:25.540Z,90.80
2018-02-21T00:33:53.072Z,90.80
2018-02-21T00:36:20.639Z,90.90
2018-02-21T00:38:48.179Z,91.10
2018-02-21T00:41:15.749Z,90.80
2018-02-21T00:43:43.314Z,91.10
2018-02-21T00:46:10.854Z,91.10
2018-02-21T00:48:38.395Z,91.20
2018-02-21T00:51:05.909Z,91.40
2018-02-21T00:53:34.228Z,91.20
2018-02-21T00:56:01.715Z,91.50
2018-02-21T00:58:29.225Z,91.30
2018-02-21T01:00:56.712Z,91.30
2018-02-21T01:03:25.056Z,91.10
2018-02-21T01:05:52.563Z,91.00
2018-02-21T01:08:20.100Z,91.20
2018-02-21T01:10:47.610Z,91.10
2018-02-21T01:13:15.111Z,90.90
2018-02-21T01:15:42.643Z,90.70
2018-02-21T01:18:10.145Z,90.80
2018-02-21T01:20:38.394Z,90.90
2018-02-21T01:23:05.929Z,90.80
2018-02-21T01:25:33.426Z,89.80
2018-02-21T01:28:02.095Z,90.00
2018-02-21T01:30:30.393Z,90.40
2018-02-21T01:32:58.756Z,90.40
2018-02-21T01:35:26.242Z,90.20
2018-02-21T01:37:53.719Z,90.10
2018-02-21T01:40:21.224Z,90.20
2018-02-21T01:42:48.961Z,90.40
2018-02-21T01:45:16.682Z,90.20
2018-02-21T01:47:44.169Z,90.30
2018-02-21T01:50:11.674Z,90.20
2018-02-21T01:52:39.397Z,90.20
2018-02-21T01:55:06.998Z,90.20
2018-02-21T01:57:34.516Z,90.30
2018-02-21T02:00:02.019Z,90.50
2018-02-21T02:02:30.323Z,90.70
2018-02-21T02:04:57.973Z,90.50
2018-02-21T02:07:25.490Z,90.00
2018-02-21T02:09:52.978Z,90.20
2018-02-21T02:12:20.454Z,90.10
2018-02-21T02:14:48.152Z,90.30
2018-02-21T02:17:15.643Z,90.40
2018-02-21T02:19:43.919Z,91.20
2018-02-21T02:22:11.497Z,91.00
2018-02-21T02:24:39.059Z,91.10
2018-02-21T02:27:06.569Z,91.20
2018-02-21T02:29:34.084Z,91.10
2018-02-21T02:32:02.238Z,91.30
2018-02-21T02:34:30.559Z,91.50
2018-02-21T02:36:58.075Z,91.50
2018-02-21T02:39:38.207Z,91.70
2018-02-21T02:42:06.516Z,91.70
2018-02-21T02:44:33.997Z,91.60
2018-02-21T02:47:01.502Z,91.60
2018-02-21T02:49:28.989Z,91.70
2018-02-21T02:51:56.509Z,91.80
2018-02-21T02:54:24.109Z,91.60
2018-02-21T02:56:51.649Z,91.70
2018-02-21T02:59:19.148Z,91.70
2018-02-21T03:01:46.647Z,91.80
2018-02-21T03:04:14.144Z,92.40
2018-02-21T03:06:41.649Z,92.00
2018-02-21T03:09:09.113Z,91.90
2018-02-21T03:11:36.607Z,91.80
2018-02-21T03:14:04.980Z,91.80
2018-02-21T03:16:33.273Z,92.00
2018-02-21T03:19:00.766Z,92.00
2018-02-21T03:21:28.359Z,91.90
2018-02-21T03:23:55.828Z,91.90
2018-02-21T03:26:24.095Z,92.30
2018-02-21T03:28:51.591Z,92.20
2018-02-21T03:31:19.109Z,92.10
2018-02-21T03:33:46.598Z,92.10
2018-02-21T03:36:14.104Z,92.20
2018-02-21T03:38:41.604Z,92.10
2018-02-21T03:41:10.129Z,92.20
2018-02-21T03:43:37.642Z,92.20
2018-02-21T03:46:05.920Z,92.40
2018-02-21T03:48:34.166Z,92.50
2018-02-21T03:51:01.693Z,92.40
2018-02-21T03:53:29.204Z,92.50
2018-02-21T03:55:57.466Z,92.80
2018-02-21T03:58:24.973Z,92.70
2018-02-21T04:00:52.489Z,92.80
2018-02-21T04:03:20.019Z,93.00
2018-02-21T04:05:47.523Z,93.00
2018-02-21T04:08:15.031Z,93.10
2018-02-21T04:10:42.526Z,93.20
2018-02-21T04:13:10.807Z,93.40
2018-02-21T04:15:39.091Z,93.50
2018-02-21T04:18:06.596Z,93.30
2018-02-21T04:20:34.151Z,93.40
2018-02-21T04:23:01.717Z,93.30
2018-02-21T04:25:29.216Z,93.40
2018-02-21T04:27:56.832Z,93.50
2018-02-21T04:30:24.399Z,93.60
2018-02-21T04:32:51.986Z,93.70
2018-02-21T04:35:20.363Z,93.80
2018-02-21T04:37:48.664Z,93.90
2018-02-21T04:40:16.225Z,93.60
2018-02-21T04:42:43.760Z,93.80
2018-02-21T04:45:11.333Z,93.90
2018-02-21T04:47:38.847Z,94.10
2018-02-21T04:50:06.420Z,94.10
2018-02-21T04:52:33.979Z,94.20
2018-02-21T04:55:04.255Z,93.90
2018-02-21T04:57:35.384Z,94.20
2018-02-21T05:00:02.896Z,94.40
2018-02-21T05:02:30.392Z,94.40
2018-02-21T05:04:57.911Z,94.50
2018-02-21T05:07:25.401Z,94.70
2018-02-21T05:09:53.658Z,94.80
2018-02-21T05:12:21.158Z,94.70
2018-02-21T05:14:48.648Z,94.80
2018-02-21T05:17:16.254Z,94.80
2018-02-21T05:19:44.528Z,95.00
2018-02-21T05:22:12.794Z,95.00
2018-02-21T05:24:41.056Z,95.20
2018-02-21T05:27:08.559Z,95.10
2018-02-21T05:29:36.064Z,95.20
2018-02-21T05:32:03.582Z,95.30
2018-02-21T05:34:31.563Z,95.50
2018-02-21T05:36:59.068Z,95.70
2018-02-21T05:39:27.352Z,95.40
2018-02-21T05:41:55.623Z,95.40
2018-02-21T05:44:23.948Z,95.40
2018-02-21T05:46:51.515Z,95.20
2018-02-21T05:49:19.094Z,95.20
2018-02-21T05:51:46.608Z,95.60
2018-02-21T05:54:14.227Z,95.30
2018-02-21T05:56:43.205Z,95.40
2018-02-21T05:59:10.968Z,95.20
2018-02-21T06:01:39.872Z,95.40
2018-02-21T06:04:07.411Z,95.30
2018-02-21T06:06:34.933Z,95.40
2018-02-21T06:09:02.433Z,95.40
2018-02-21T06:11:30.783Z,95.50
2018-02-21T06:13:58.505Z,95.50
2018-02-21T06:16:25.988Z,95.30
2018-02-21T06:18:54.699Z,95.10
2018-02-21T06:21:22.550Z,95.20
2018-02-21T06:23:50.058Z,95.10
2018-02-21T06:26:18.327Z,95.40
2018-02-21T06:28:46.042Z,95.40
2018-02-21T06:31:13.546Z,95.30
2018-02-21T06:33:41.067Z,95.30
2018-02-21T06:36:08.594Z,95.20
2018-02-21T06:38:36.106Z,95.20
2018-02-21T06:41:03.619Z,95.30
2018-02-21T06:43:31.130Z,95.20
2018-02-21T06:45:58.657Z,95.20
2018-02-21T06:48:26.139Z,95.10
2018-02-21T06:50:53.667Z,95.00
2018-02-21T06:53:21.195Z,95.00
2018-02-21T06:55:49.466Z,95.10
2018-02-21T06:58:17.725Z,95.20
2018-02-21T07:00:45.298Z,95.00
2018-02-21T07:03:13.562Z,95.20
2018-02-21T07:05:41.072Z,95.10
2018-02-21T07:08:08.558Z,95.00
2018-02-21T07:10:36.043Z,94.80
2018-02-21T07:13:04.305Z,95.40
2018-02-21T07:15:31.819Z,94.80
2018-02-21T07:17:59.307Z,94.90
2018-02-21T07:20:26.828Z,94.60
2018-02-21T07:22:54.318Z,94.60
2018-02-21T07:25:21.806Z,94.50
2018-02-21T07:27:50.121Z,94.70
2018-02-21T07:30:17.634Z,94.60
2018-02-21T07:32:45.916Z,94.40
2018-02-21T07:35:14.170Z,94.30
2018-02-21T07:37:41.678Z,94.30
2018-02-21T07:40:09.182Z,94.20
2018-02-21T07:42:36.677Z,94.10
2018-02-21T07:45:04.928Z,93.90
2018-02-21T07:47:32.443Z,93.30
2018-02-21T07:49:59.929Z,93.50
2018-02-21T07:52:27.446Z,93.40
2018-02-21T07:54:54.939Z,93.50
2018-02-21T07:57:22.455Z,93.20
2018-02-21T07:59:50.700Z,93.10
2018-02-21T08:02:18.223Z,92.90
2018-02-21T08:04:45.741Z,92.80
2018-02-21T08:07:13.528Z,92.30
2018-02-21T08:09:41.092Z,92.60
2018-02-21T08:12:08.640Z,92.30
2018-02-21T08:14:36.170Z,92.30
2018-02-21T08:17:03.745Z,92.30
2018-02-21T08:19:31.546Z,91.80
2018-02-21T08:21:59.136Z,91.80
2018-02-21T08:24:27.437Z,91.80
2018-02-21T08:26:54.988Z,91.80
2018-02-21T08:29:22.497Z,91.10
2018-02-21T08:31:50.722Z,91.40
2018-02-21T08:34:26.218Z,91.20
2018-02-21T08:39:29.927Z,91.00
2018-02-21T08:42:08.697Z,91.00
2018-02-21T08:44:36.815Z,90.90
2018-02-21T08:47:06.252Z,91.10
2018-02-21T08:49:43.896Z,90.80
2018-02-21T08:52:11.699Z,90.70
2018-02-21T08:54:39.454Z,90.70
2018-02-21T08:57:07.051Z,90.60
2018-02-21T08:59:35.330Z,90.10
2018-02-21T09:02:03.642Z,90.30
2018-02-21T09:04:31.126Z,90.10
2018-02-21T09:06:58.607Z,89.10
2018-02-21T09:09:26.120Z,89.50
2018-02-21T09:11:53.601Z,89.00
2018-02-21T09:14:21.114Z,88.60
2018-02-21T09:16:48.605Z,89.00
2018-02-21T09:19:16.109Z,88.70
2018-02-21T09:21:43.614Z,87.50
2018-02-21T09:24:11.128Z,87.10
2018-02-21T09:26:38.649Z,87.00
2018-02-21T09:29:06.193Z,86.70
2018-02-21T09:31:33.686Z,86.00
2018-02-21T09:34:01.187Z,85.30
2018-02-21T09:36:29.589Z,85.50
2018-02-21T09:38:57.201Z,84.50
2018-02-21T09:41:25.561Z,83.80
2018-02-21T09:43:53.037Z,83.10
2018-02-21T09:46:20.533Z,83.80
2018-02-21T09:48:48.812Z,84.00
2018-02-21T09:51:16.309Z,82.00
2018-02-21T09:53:43.801Z,82.80
2018-02-21T09:56:11.291Z,81.40
2018-02-21T09:58:38.854Z,80.70
2018-02-21T10:01:06.401Z,80.40
2018-02-21T10:03:33.937Z,79.10
2018-02-21T10:06:02.274Z,77.80
2018-02-21T10:08:29.801Z,77.70
2018-02-21T10:10:57.354Z,76.50
2018-02-21T10:13:24.913Z,76.60
2018-02-21T10:15:52.521Z,74.70
2018-02-21T10:18:20.023Z,74.10
2018-02-21T10:20:47.544Z,74.90
2018-02-21T10:23:15.823Z,74.10
2018-02-21T10:25:43.330Z,73.70
2018-02-21T10:28:10.823Z,73.20
2018-02-21T10:30:38.360Z,72.20
2018-02-21T10:33:05.886Z,71.00
2018-02-21T10:35:33.387Z,71.50
2018-02-21T10:38:00.941Z,71.80
2018-02-21T10:40:28.436Z,71.90
2018-02-21T10:42:56.792Z,72.10
2018-02-21T10:45:24.317Z,72.00
2018-02-21T10:47:51.796Z,70.60
2018-02-21T10:50:19.331Z,69.20
2018-02-21T10:52:46.891Z,68.20
2018-02-21T10:55:14.409Z,68.00
2018-02-21T10:57:42.689Z,67.00
2018-02-21T11:00:11.054Z,66.70
2018-02-21T11:02:38.683Z,66.50
2018-02-21T11:05:06.382Z,66.30
2018-02-21T11:07:33.933Z,66.40
2018-02-21T11:10:01.405Z,64.80
2018-02-21T11:12:29.710Z,68.40
2018-02-21T11:14:57.256Z,68.00
2018-02-21T11:17:24.778Z,68.40
2018-02-21T11:19:52.299Z,66.70
2018-02-21T11:22:19.867Z,66.60
2018-02-21T11:24:47.394Z,66.90
2018-02-21T11:27:15.048Z,68.80
2018-02-21T11:29:43.353Z,67.60
2018-02-21T11:32:10.912Z,67.30
2018-02-21T11:34:38.478Z,66.70
2018-02-21T11:37:06.026Z,67.70
2018-02-21T11:39:33.571Z,67.10
2018-02-21T11:42:01.058Z,66.90
2018-02-21T11:44:28.581Z,66.30
2018-02-21T11:46:56.865Z,64.90
2018-02-21T11:49:24.437Z,64.70
2018-02-21T11:51:52.724Z,67.60
2018-02-21T11:54:20.268Z,67.30
2018-02-21T11:56:47.830Z,65.20
2018-02-21T11:59:15.358Z,62.40
2018-02-21T12:01:43.688Z,60.70
2018-02-21T12:04:11.219Z,60.30
2018-02-21T12:06:38.725Z,58.80
2018-02-21T12:09:06.240Z,61.70
2018-02-21T12:11:33.803Z,62.40
2018-02-21T12:14:01.296Z,63.00
2018-02-21T12:16:29.901Z,61.30
2018-02-21T12:18:58.223Z,56.80
2018-02-21T12:21:25.765Z,56.60
2018-02-21T12:23:53.261Z,57.00
2018-02-21T12:26:20.892Z,58.20
2018-02-21T12:28:48.403Z,58.80
2018-02-21T12:31:15.875Z,60.50
2018-02-21T12:33:44.141Z,58.80
2018-02-21T12:36:11.614Z,58.80
2018-02-21T12:38:39.904Z,61.80
2018-02-21T12:41:13.135Z,61.80
2018-02-21T12:43:43.639Z,61.40
2018-02-21T12:46:11.295Z,60.90
2018-02-21T12:48:38.865Z,62.10
2018-02-21T12:51:06.372Z,61.70
2018-02-21T12:53:33.948Z,62.60
2018-02-21T12:56:01.477Z,60.50
2018-02-21T12:58:29.770Z,57.10
2018-02-21T13:00:57.282Z,57.60
2018-02-21T13:03:24.777Z,57.90
2018-02-21T13:05:52.352Z,59.30
2018-02-21T13:08:19.784Z,59.20
2018-02-21T13:10:47.255Z,58.40
2018-02-21T13:13:14.775Z,58.80
2018-02-21T13:15:42.274Z,61.80
2018-02-21T13:18:10.569Z,60.10
2018-02-21T13:20:38.858Z,57.70
2018-02-21T13:23:06.388Z,57.50
2018-02-21T13:25:33.894Z,58.20
2018-02-21T13:28:01.374Z,58.30
2018-02-21T13:30:28.884Z,57.90
2018-02-21T13:32:56.401Z,58.30
2018-02-21T13:35:23.933Z,58.20
2018-02-21T13:37:51.436Z,58.30
2018-02-21T13:40:19.725Z,56.40
2018-02-21T13:42:47.208Z,56.30
2018-02-21T13:45:14.729Z,55.00
2018-02-21T13:47:43.042Z,56.50
2018-02-21T13:50:11.300Z,57.30
2018-02-21T13:52:38.824Z,57.00
2018-02-21T13:55:06.364Z,57.70
2018-02-21T13:57:33.880Z,56.00
2018-02-21T14:00:01.409Z,55.90
2018-02-21T14:02:28.896Z,54.00
2018-02-21T14:04:56.556Z,53.10
2018-02-21T14:07:24.128Z,53.50
2018-02-21T14:09:51.642Z,54.00
2018-02-21T14:12:19.148Z,55.10
2018-02-21T14:14:46.664Z,54.20
2018-02-21T14:17:14.183Z,54.40
2018-02-21T14:19:41.934Z,54.80
2018-02-21T14:22:09.498Z,55.00
2018-02-21T14:24:37.025Z,56.50
2018-02-21T14:27:04.532Z,55.60
2018-02-21T14:29:32.084Z,55.90
2018-02-21T14:31:59.590Z,55.90
2018-02-21T14:34:27.133Z,55.80
2018-02-21T14:36:54.698Z,55.70
2018-02-21T14:39:22.973Z,56.60
2018-02-21T14:41:51.258Z,56.80
2018-02-21T14:44:19.514Z,57.10
2018-02-21T14:46:47.044Z,56.80
2018-02-21T14:49:14.550Z,57.00
2018-02-21T14:51:42.844Z,57.70
2018-02-21T14:54:10.349Z,57.60
2018-02-21T14:56:37.932Z,56.80
2018-02-21T14:59:05.451Z,58.20
2018-02-21T15:01:32.922Z,57.70
2018-02-21T15:04:00.471Z,57.30
2018-02-21T15:06:27.981Z,58.20
2018-02-21T15:08:56.272Z,58.30
2018-02-21T15:11:23.802Z,58.00
2018-02-21T15:13:51.370Z,56.60
2018-02-21T15:16:24.640Z,56.60
2018-02-21T15:18:52.174Z,56.30
2018-02-21T15:21:19.645Z,56.50
2018-02-21T15:23:47.187Z,56.80
2018-02-21T15:26:14.650Z,57.40
2018-02-21T15:28:42.151Z,57.90
2018-02-21T15:31:10.389Z,58.80
2018-02-21T15:33:37.895Z,58.70
2018-02-21T15:36:05.425Z,59.50
2018-02-21T15:38:32.992Z,58.50
2018-02-21T15:41:00.416Z,58.80
2018-02-21T15:43:27.921Z,56.90
2018-02-21T15:45:56.180Z,57.20
2018-02-21T15:48:24.450Z,57.90
2018-02-21T15:50:51.949Z,57.70
2018-02-21T15:53:19.595Z,58.30
2018-02-21T15:55:47.876Z,58.00
2018-02-21T15:58:15.360Z,57.90
2018-02-21T16:00:42.973Z,59.90
2018-02-21T16:03:11.338Z,62.70
2018-02-21T16:05:39.748Z,64.00
2018-02-21T16:08:07.386Z,63.90
2018-02-21T16:10:35.639Z,64.50
2018-02-21T16:13:03.151Z,64.80
2018-02-21T16:15:30.670Z,65.00
2018-02-21T16:17:58.153Z,64.60
2018-02-21T16:20:26.413Z,66.30
2018-02-21T16:22:53.903Z,66.10
2018-02-21T16:25:21.429Z,66.40
2018-02-21T16:27:48.942Z,66.90
2018-02-21T16:30:16.485Z,66.80
2018-02-21T16:32:44.001Z,67.50
2018-02-21T16:35:12.304Z,68.60
2018-02-21T16:37:48.315Z,68.10
2018-02-21T16:40:15.925Z,68.60
2018-02-21T16:42:43.486Z,68.30
2018-02-21T16:45:11.023Z,68.60
2018-02-21T16:47:39.387Z,69.30
2018-02-21T16:50:06.959Z,68.90
2018-02-21T16:52:35.232Z,69.90
2018-02-21T16:55:03.149Z,69.80
2018-02-21T16:57:30.647Z,70.20
2018-02-21T16:59:58.168Z,70.70
2018-02-21T17:02:25.676Z,70.90
2018-02-21T17:04:54.418Z,71.50
2018-02-21T17:07:21.918Z,71.20
2018-02-21T17:09:49.543Z,71.10
2018-02-21T17:12:17.017Z,71.00
2018-02-21T17:14:44.514Z,71.80
2018-02-21T17:17:12.006Z,71.80
2018-02-21T17:19:39.507Z,72.00
2018-02-21T17:22:07.853Z,72.50
2018-02-21T17:24:35.378Z,72.30
2018-02-21T17:27:03.273Z,72.20
2018-02-21T17:29:30.779Z,72.50
2018-02-21T17:31:58.691Z,72.90
2018-02-21T17:34:26.204Z,72.80
2018-02-21T17:36:55.959Z,73.90
2018-02-21T17:39:23.465Z,73.60
2018-02-21T17:41:51.709Z,74.70
2018-02-21T17:44:19.237Z,74.60
2018-02-21T17:46:46.787Z,74.80
2018-02-21T17:49:14.466Z,74.70
2018-02-21T17:51:44.541Z,75.30
2018-02-21T17:54:12.201Z,75.30
2018-02-21T17:56:41.276Z,75.50
2018-02-21T17:59:09.306Z,75.60
2018-02-21T18:01:36.888Z,75.70
2018-02-21T18:04:11.891Z,75.20
2018-02-21T18:06:40.237Z,76.60
2018-02-21T18:09:08.492Z,76.00
2018-02-21T18:11:36.012Z,77.10
2018-02-21T18:14:03.494Z,77.50
2018-02-21T18:16:31.021Z,77.70
2018-02-21T18:18:58.523Z,77.70
2018-02-21T18:21:31.836Z,77.80
2018-02-21T18:24:00.495Z,78.60
2018-02-21T18:26:28.037Z,77.70
2018-02-21T18:28:55.540Z,77.80
2018-02-21T18:31:23.525Z,77.30
2018-02-21T18:33:51.045Z,77.40
2018-02-21T18:36:18.557Z,77.70
2018-02-21T18:38:46.034Z,77.70
2018-02-21T18:41:13.596Z,77.70
2018-02-21T18:43:41.096Z,77.50
2018-02-21T18:46:09.354Z,77.50
2018-02-21T18:48:36.842Z,77.20
2018-02-21T18:51:05.117Z,77.50
2018-02-21T18:53:32.640Z,77.20
2018-02-21T18:56:00.937Z,77.80
2018-02-21T18:58:29.259Z,77.70
2018-02-21T19:00:56.752Z,77.50
2018-02-21T19:03:24.310Z,77.80
2018-02-21T19:05:51.916Z,78.00
2018-02-21T19:08:19.457Z,78.20
2018-02-21T19:10:47.285Z,78.50
2018-02-21T19:13:14.845Z,77.70
2018-02-21T19:15:43.174Z,78.50
2018-02-21T19:18:10.764Z,78.60
2018-02-21T19:20:38.280Z,78.40
2018-02-21T19:23:05.923Z,78.60
2018-02-21T19:25:33.507Z,78.80
2018-02-21T19:28:01.028Z,79.40
2018-02-21T19:30:28.581Z,79.60
2018-02-21T19:32:56.168Z,79.80
2018-02-21T19:35:24.553Z,80.80
2018-02-21T19:37:52.807Z,81.30
2018-02-21T19:40:20.314Z,81.00
2018-02-21T19:42:47.910Z,81.20
2018-02-21T19:45:15.418Z,81.50
2018-02-21T19:47:42.958Z,81.80
2018-02-21T19:50:11.366Z,82.00
2018-02-21T19:52:38.912Z,82.30
2018-02-21T19:55:06.493Z,82.50
2018-02-21T19:57:34.896Z,82.40
2018-02-21T20:00:02.915Z,82.90
2018-02-21T20:02:31.259Z,83.00
2018-02-21T20:04:58.942Z,83.20
2018-02-21T20:07:26.633Z,83.30
2018-02-21T20:09:54.164Z,83.30
2018-02-21T20:12:22.459Z,84.00
2018-02-21T20:14:52.580Z,83.80
2018-02-21T20:17:20.181Z,84.20
2018-02-21T20:19:48.710Z,85.00
2018-02-21T20:22:16.271Z,84.50
2018-02-21T20:24:44.110Z,84.50
2018-02-21T20:27:16.513Z,85.30
2018-02-21T20:29:46.019Z,84.60
2018-02-21T20:32:13.628Z,85.00
2018-02-21T20:34:41.192Z,84.90
2018-02-21T20:37:09.369Z,85.00
2018-02-21T20:39:36.952Z,84.30
2018-02-21T20:42:06.064Z,84.50
2018-02-21T20:44:34.445Z,83.90
2018-02-21T20:47:02.828Z,84.30
2018-02-21T20:49:30.396Z,83.80
2018-02-21T20:51:57.966Z,83.90
2018-02-21T20:54:25.535Z,84.50
2018-02-21T20:56:54.047Z,84.60
2018-02-21T20:59:21.596Z,85.00
2018-02-21T21:01:50.792Z,85.00
2018-02-21T21:04:18.366Z,84.60
2018-02-21T21:06:45.878Z,83.00
2018-02-21T21:09:13.501Z,83.50
2018-02-21T21:11:41.101Z,83.70
2018-02-21T21:14:09.216Z,84.00
2018-02-21T21:16:37.582Z,85.00
2018-02-21T21:19:05.144Z,84.60
2018-02-21T21:21:32.667Z,84.30
2018-02-21T21:24:01.130Z,84.80
2018-02-21T21:26:28.682Z,85.00
2018-02-21T21:28:56.172Z,85.20
2018-02-21T21:31:23.826Z,84.70
2018-02-21T21:33:51.607Z,85.10
2018-02-21T21:36:19.134Z,84.70
2018-02-21T21:38:46.684Z,85.00
2018-02-21T21:41:14.222Z,85.20
2018-02-21T21:43:42.552Z,85.30
2018-02-21T21:46:10.087Z,84.90
2018-02-21T21:48:37.982Z,85.30
2018-02-21T21:51:05.544Z,85.10
2018-02-21T21:53:33.096Z,85.30
2018-02-21T21:56:01.397Z,84.90
2018-02-21T21:58:28.903Z,85.20
2018-02-21T22:00:56.449Z,85.10
2018-02-21T22:03:24.055Z,85.50
2018-02-21T22:05:51.655Z,85.30
2018-02-21T22:08:19.161Z,85.20
2018-02-21T22:10:46.915Z,85.20
2018-02-21T22:13:14.466Z,85.10
2018-02-21T22:15:42.580Z,85.50
2018-02-21T22:18:11.465Z,85.60
2018-02-21T22:20:39.001Z,85.60
2018-02-21T22:23:06.563Z,85.70
2018-02-21T22:25:34.073Z,85.80
2018-02-21T22:28:02.378Z,86.30
2018-02-21T22:30:29.921Z,85.70
2018-02-21T22:32:58.192Z,86.40
2018-02-21T22:35:26.467Z,87.00
2018-02-21T22:37:54.738Z,87.00
2018-02-21T22:40:22.259Z,86.60
2018-02-21T22:42:49.758Z,86.50
2018-02-21T22:45:18.061Z,86.60
2018-02-21T22:47:45.587Z,86.80
2018-02-21T22:50:13.885Z,87.60
2018-02-21T22:52:42.177Z,87.70
2018-02-21T22:55:09.656Z,87.30
2018-02-21T22:57:37.217Z,87.30
2018-02-21T23:00:04.888Z,87.50
2018-02-21T23:02:32.385Z,87.40
2018-02-21T23:05:00.650Z,87.90
2018-02-21T23:07:28.963Z,87.90
2018-02-21T23:09:56.499Z,87.70
2018-02-21T23:12:24.805Z,88.50
2018-02-21T23:14:52.296Z,88.20
2018-02-21T23:17:20.255Z,88.40
2018-02-21T23:19:47.826Z,89.00
2018-02-21T23:22:15.663Z,89.00
2018-02-21T23:24:43.145Z,88.90
2018-02-21T23:27:11.426Z,89.60
2018-02-21T23:29:38.982Z,89.40
2018-02-21T23:32:06.521Z,89.40
2018-02-21T23:34:34.057Z,89.60
2018-02-21T23:37:01.799Z,89.70
2018-02-21T23:39:29.308Z,89.70
2018-02-21T23:41:56.841Z,89.90
2018-02-21T23:44:25.564Z,90.00
2018-02-21T23:46:53.091Z,90.10
2018-02-21T23:49:20.581Z,90.10
2018-02-21T23:51:48.849Z,90.40
2018-02-21T23:54:16.388Z,90.30
2018-02-21T23:56:43.874Z,90.40
2018-02-21T23:59:11.409Z,90.30
